Portada
METAR-TAF:

METAR-TAF

Aeroports :

Tuggurt, Algèria

latitud: 33-07N, longitud: 006-08E, altitud: 85 m

METAR: manca

Hora: 20:09 (19:09 UTC)

Pronòstic

L'informe es va fer fa 2 hores i 9 minuts, a les 17:00 UTC
Pronòstic vàlid del 16 a les 18 UTC al 17 a les 03 UTC
Vent 14 kt del Nord-Est
Visibilitat: 8000 m
Núvols disperses a una alçada de 4000 ft
Núvols disperses a una alçada de 10000 ft
Probabilitat 30% :
Temporalment
l' 16 a les 20 UTC al 16 a les 22 UTC
Vent 20 kt del Nord-Est amb ràfegues de 30 kt
Visibilitat: 1500 m
Escasses núvols a una alçada de 3300 ft, Cumulonimbus.
torb alta de sora
Probabilitat 40% :
Temporalment
l' 16 a les 22 UTC al 17 a les 03 UTC
Visibilitat: 5000 m
Escasses núvols a una alçada de 3000 ft, Cumulonimbus.
tempesta, pluja

TAF: DAUK 161700Z 1618/1703 04014KT 8000 SCT040 SCT100 PROB30 TEMPO 1620/1622 04020G30KT 1500 BLSA FEW033CB PROB40 TEMPO 1622/1703 5000 -TSRA FEW030CB

Observacions i pronòstics meteorològics de més de 4000 aeroports (METAR i TAF).

Les estacions disponibles són els punts grocs i vermells al mapa.

Posi el ratolí al punt desitjat per veure el nom de l'estació.

Feu clic per veure les observacions i els pronòstics meteorològics.

Per canviar el mapa: feu clic els botons verds amb una creu de color negre per apropar; al botó verd amb un guió per allunyar la imatge; o en les fletxes verdes per a mapes adjacents.


METAR-TAF: